Time;durP1;ratioP1;P1;durP2;ratioP2;P2;SDS_P1;SDS_P2;PMS_P1;PMS_P2;Temp;Humidity;BMP_temperature;BMP_pressure;BME280_temperature;BME280_humidity;BME280_pressure;Samples;Min_cycle;Max_cycle;Signal;HPM_P1;HPM_P2
2022/01/16 00:00:51;;;;;;;3.20;1.65;;;;;;;-1.86;62.98;98545.31;5054445;28;20045;-71
2022/01/16 00:06:01;;;;;;;2.40;1.52;;;;;;;-1.94;63.42;98548.31;5053068;28;20021;-70
2022/01/16 00:08:26;;;;;;;2.97;1.45;;;;;;;-2.10;63.34;98519.38;5054407;28;20098;-71
2022/01/16 00:10:52;;;;;;;2.50;1.45;;;;;;;-2.11;63.64;98546.53;5054073;28;20029;-72
2022/01/16 00:13:17;;;;;;;3.92;1.25;;;;;;;-2.19;63.69;98543.44;5054371;28;20036;-71
2022/01/16 00:15:44;;;;;;;4.50;1.40;;;;;;;-2.23;64.42;98547.97;5054560;28;20116;-71
2022/01/16 00:18:28;;;;;;;3.30;1.45;;;;;;;-2.35;64.36;98527.63;5054415;28;20036;-71
2022/01/16 00:20:55;;;;;;;4.07;1.80;;;;;;;-2.17;64.40;98531.97;5054793;28;20032;-72
2022/01/16 00:23:25;;;;;;;2.35;1.30;;;;;;;-2.16;64.02;98527.56;5054355;28;20040;-71
2022/01/16 00:25:53;;;;;;;3.42;1.73;;;;;;;-2.03;63.76;98533.06;5052959;28;20055;-71
2022/01/16 00:28:19;;;;;;;2.22;1.23;;;;;;;-1.96;63.67;98529.19;5053657;28;20120;-72
2022/01/16 00:30:44;;;;;;;4.43;1.50;;;;;;;-1.88;63.56;98532.28;5069654;28;20120;-71
2022/01/16 00:33:10;;;;;;;3.65;1.33;;;;;;;-1.82;63.89;98540.78;5054449;28;20124;-70
2022/01/16 00:35:35;;;;;;;3.05;1.63;;;;;;;-1.75;63.10;98547.41;5086823;28;20029;-71
2022/01/16 00:38:01;;;;;;;1.80;1.08;;;;;;;-1.68;62.95;98548.81;5054301;28;20104;-71
2022/01/16 00:40:29;;;;;;;3.35;1.42;;;;;;;-1.66;63.13;98552.19;5058000;28;20028;-72
2022/01/16 00:42:56;;;;;;;2.40;1.35;;;;;;;-1.80;63.42;98517.94;5057495;28;20090;-71
2022/01/16 00:45:21;;;;;;;3.20;1.42;;;;;;;-1.53;63.29;98551.56;5057742;28;20056;-71
2022/01/16 00:47:46;;;;;;;3.60;1.60;;;;;;;-1.48;62.73;98555.66;5054028;28;20040;-71
2022/01/16 00:50:12;;;;;;;4.15;1.63;;;;;;;-1.39;62.62;98564.81;5053863;28;20029;-73
2022/01/16 00:52:38;;;;;;;3.83;1.80;;;;;;;-1.54;62.62;98537.59;5053195;28;20491;-68
2022/01/16 00:55:04;;;;;;;3.00;1.70;;;;;;;-1.54;62.60;98536.72;5053347;28;20064;-73
2022/01/16 00:57:30;;;;;;;3.00;1.58;;;;;;;-1.35;62.51;98570.75;5053912;28;20498;-72
2022/01/16 00:59:56;;;;;;;3.90;1.88;;;;;;;-1.44;62.37;98556.34;5053814;28;20091;-71
2022/01/16 01:02:23;;;;;;;4.43;1.98;;;;;;;-1.39;62.60;98570.09;5053070;28;20029;-70
2022/01/16 01:04:49;;;;;;;2.97;1.60;;;;;;;-1.43;61.88;98591.31;5052992;28;20025;-69
2022/01/16 01:07:15;;;;;;;3.63;2.08;;;;;;;-1.36;62.68;98600.56;5052318;28;20033;-71
2022/01/16 01:09:41;;;;;;;3.72;1.40;;;;;;;-1.33;62.02;98597.78;5052263;28;20115;-72
2022/01/16 01:12:09;;;;;;;4.35;1.98;;;;;;;-1.27;61.39;98599.25;5053152;28;20112;-71
2022/01/16 01:14:41;;;;;;;3.83;1.38;;;;;;;-1.25;61.28;98605.25;5052797;28;20077;-73
2022/01/16 01:17:09;;;;;;;3.65;1.63;;;;;;;-1.20;61.65;98624.28;5053502;28;20033;-71
2022/01/16 01:19:35;;;;;;;2.88;1.63;;;;;;;-1.22;61.37;98615.59;5053675;28;20033;-71
2022/01/16 01:22:05;;;;;;;3.60;1.40;;;;;;;-1.21;61.52;98631.28;5051122;28;20033;-72
2022/01/16 01:24:34;;;;;;;3.40;1.23;;;;;;;-1.24;61.25;98627.97;5052595;28;20044;-71
2022/01/16 01:27:13;;;;;;;2.90;1.30;;;;;;;-1.37;60.66;98619.88;5052893;28;20033;-71
2022/01/16 01:29:41;;;;;;;3.55;1.33;;;;;;;-1.38;60.86;98619.03;5085838;28;20032;-71
2022/01/16 01:32:07;;;;;;;2.85;1.30;;;;;;;-1.40;61.47;98636.66;5052978;28;20033;-72
2022/01/16 01:34:32;;;;;;;2.92;1.20;;;;;;;-1.35;61.56;98655.63;5051407;28;20236;-72
2022/01/16 01:36:58;;;;;;;2.67;1.10;;;;;;;-1.33;61.77;98660.78;5053004;28;20560;-72
2022/01/16 01:39:23;;;;;;;2.47;1.30;;;;;;;-1.32;61.05;98660.72;5053005;28;20036;-71
2022/01/16 01:41:54;;;;;;;3.45;1.38;;;;;;;-1.27;60.99;98671.00;5052265;28;20041;-72
2022/01/16 01:52:34;;;;;;;3.83;1.30;;;;;;;-1.32;60.57;98671.22;5052241;28;20051;-72
2022/01/16 01:55:00;;;;;;;3.58;1.15;;;;;;;-1.53;60.85;98657.41;5051904;28;20044;-68
2022/01/16 01:57:26;;;;;;;2.92;1.50;;;;;;;-1.45;60.46;98668.38;5052261;28;20051;-73
2022/01/16 01:59:51;;;;;;;3.30;1.10;;;;;;;-1.39;59.95;98698.75;5084270;28;20037;-71
2022/01/16 02:02:17;;;;;;;2.83;1.40;;;;;;;-1.42;60.03;98717.28;5052340;28;20471;-72
2022/01/16 02:04:42;;;;;;;3.08;1.30;;;;;;;-1.41;60.57;98708.47;5084428;28;20166;-70
2022/01/16 02:07:08;;;;;;;2.38;1.10;;;;;;;-1.43;60.04;98741.81;5034214;28;20051;-71
2022/01/16 02:09:34;;;;;;;3.53;1.30;;;;;;;-1.50;60.44;98716.78;5052698;28;20103;-72
2022/01/16 02:12:00;;;;;;;1.98;0.90;;;;;;;-1.55;60.15;98705.66;5051338;28;20029;-72
2022/01/16 02:14:31;;;;;;;3.33;1.15;;;;;;;-1.47;59.55;98735.88;5052274;28;20106;-71
2022/01/16 02:35:44;;;;;;;2.92;1.40;;;;;;;-1.51;60.06;98608.31;5050383;28;20028;-72
2022/01/16 02:38:10;;;;;;;3.63;1.50;;;;;;;-1.49;60.25;98676.47;5051241;28;20371;-72
2022/01/16 02:40:39;;;;;;;3.42;1.40;;;;;;;-1.47;59.54;98695.63;5051054;28;20033;-73
2022/01/16 02:43:05;;;;;;;2.67;1.45;;;;;;;-1.53;59.41;98741.41;5051221;28;20028;-71
2022/01/16 02:45:33;;;;;;;3.05;1.38;;;;;;;-1.63;59.44;98743.63;5051386;28;20036;-71
2022/01/16 02:48:06;;;;;;;2.83;1.17;;;;;;;-1.61;59.77;98691.91;5050839;28;20164;-70
2022/01/16 02:50:34;;;;;;;1.90;1.10;;;;;;;-1.63;59.72;98695.53;5050691;28;20085;-71
2022/01/16 02:53:01;;;;;;;4.75;1.13;;;;;;;-1.66;59.29;98725.41;5051280;28;20573;-70
2022/01/16 02:55:27;;;;;;;3.22;1.27;;;;;;;-1.70;59.65;98736.13;5050367;28;20414;-70
2022/01/16 02:57:54;;;;;;;2.15;1.23;;;;;;;-1.75;59.39;98715.34;5050599;28;20489;-68
2022/01/16 03:00:22;;;;;;;2.47;1.27;;;;;;;-1.79;59.64;98684.94;5083149;28;20035;-72
2022/01/16 03:02:49;;;;;;;4.03;1.25;;;;;;;-1.77;59.42;98719.81;5054165;28;20048;-70
2022/01/16 03:05:15;;;;;;;4.57;1.15;;;;;;;-1.80;59.27;98725.22;5067306;28;20032;-66
2022/01/16 03:07:42;;;;;;;3.58;1.40;;;;;;;-1.85;59.77;98716.72;5061229;28;20120;-71
2022/01/16 03:12:36;;;;;;;2.00;1.05;;;;;;;-1.82;58.89;98742.81;5051425;28;20086;-70
2022/01/16 03:15:02;;;;;;;2.17;1.30;;;;;;;-1.94;59.55;98725.88;5051286;28;20455;-71
2022/01/16 03:17:53;;;;;;;2.13;1.20;;;;;;;-2.01;59.44;98735.78;5050556;28;20393;-71
2022/01/16 03:22:58;;;;;;;2.10;0.98;;;;;;;-2.13;59.72;98749.47;5051308;28;20040;-71
2022/01/16 03:25:24;;;;;;;2.40;0.93;;;;;;;-2.16;60.36;98779.31;5049841;28;20025;-71
2022/01/16 03:27:50;;;;;;;2.03;1.00;;;;;;;-2.17;60.03;98785.47;5050338;28;20098;-70
2022/01/16 03:30:15;;;;;;;2.83;1.23;;;;;;;-2.16;60.31;98774.06;5083157;28;20466;-71
2022/01/16 03:32:41;;;;;;;2.67;1.30;;;;;;;-2.13;59.77;98787.03;5051211;28;20025;-71
2022/01/16 03:35:07;;;;;;;2.63;1.27;;;;;;;-2.17;59.65;98768.00;5050521;28;20091;-71
2022/01/16 03:37:32;;;;;;;2.42;1.52;;;;;;;-2.12;59.97;98769.53;5050394;28;20087;-69
2022/01/16 03:39:58;;;;;;;2.92;1.45;;;;;;;-2.28;59.72;98759.75;5050769;28;20025;-71
2022/01/16 03:42:28;;;;;;;2.90;1.50;;;;;;;-2.15;60.30;98788.03;5050278;28;20029;-70
2022/01/16 03:44:53;;;;;;;4.43;1.33;;;;;;;-2.09;59.96;98800.88;5049408;28;20044;-70
2022/01/16 03:47:19;;;;;;;2.15;1.23;;;;;;;-1.99;59.76;98814.44;5050244;28;20029;-70
2022/01/16 03:49:44;;;;;;;4.07;1.20;;;;;;;-1.98;59.50;98814.34;5050532;28;20052;-70
2022/01/16 03:52:10;;;;;;;2.67;1.20;;;;;;;-1.94;59.93;98815.91;5050181;28;20052;-71
2022/01/16 03:54:35;;;;;;;2.47;1.38;;;;;;;-1.94;59.49;98801.94;5051085;28;20033;-71
2022/01/16 03:57:01;;;;;;;3.10;1.23;;;;;;;-1.97;59.90;98804.72;5071012;28;20033;-70
2022/01/16 03:59:27;;;;;;;2.13;1.10;;;;;;;-2.00;59.76;98821.44;5057478;28;20029;-71
2022/01/16 04:01:53;;;;;;;3.83;1.40;;;;;;;-1.97;59.34;98808.16;5050310;28;20368;-70
2022/01/16 04:04:19;;;;;;;3.20;1.15;;;;;;;-1.93;59.32;98822.88;5050402;28;20079;-71
2022/01/16 04:06:44;;;;;;;2.67;1.13;;;;;;;-1.86;59.64;98822.59;5053097;28;20467;-71
2022/01/16 04:09:10;;;;;;;3.35;1.20;;;;;;;-2.01;59.82;98809.22;5053813;28;20021;-71
2022/01/16 04:11:43;;;;;;;2.53;1.40;;;;;;;-1.86;59.38;98827.84;5054018;28;20104;-72
2022/01/16 04:14:15;;;;;;;2.63;1.30;;;;;;;-1.81;59.58;98834.59;5054183;28;20033;-71
2022/01/16 04:16:41;;;;;;;2.90;1.30;;;;;;;-1.80;59.10;98827.53;5053583;28;20028;-70
2022/01/16 04:19:06;;;;;;;4.20;1.20;;;;;;;-1.82;59.40;98832.84;5053821;28;20451;-70
2022/01/16 04:21:32;;;;;;;2.20;1.20;;;;;;;-1.99;59.86;98802.16;5054180;28;20028;-71
2022/01/16 04:23:58;;;;;;;2.40;1.17;;;;;;;-1.88;59.49;98836.63;5053785;28;20086;-71
2022/01/16 04:26:25;;;;;;;3.10;1.30;;;;;;;-1.88;59.25;98847.13;5053582;28;20043;-73
2022/01/16 04:28:52;;;;;;;3.08;1.15;;;;;;;-1.86;59.09;98849.66;5054522;28;20032;-70
2022/01/16 04:31:17;;;;;;;2.55;1.40;;;;;;;-1.82;59.34;98851.22;5053278;28;20028;-72
2022/01/16 04:33:43;;;;;;;2.63;1.50;;;;;;;-1.79;59.22;98855.50;5053509;28;20513;-70
2022/01/16 04:36:10;;;;;;;3.55;1.55;;;;;;;-1.86;59.04;98848.81;5053533;28;20069;-73
2022/01/16 04:38:38;;;;;;;3.97;1.58;;;;;;;-1.87;58.78;98847.97;5053823;28;20087;-71
2022/01/16 04:43:49;;;;;;;5.90;1.92;;;;;;;-1.84;59.22;98855.69;5053666;28;20100;-71
2022/01/16 04:46:33;;;;;;;4.57;1.70;;;;;;;-1.73;59.44;98870.94;5052941;28;20115;-70
2022/01/16 04:49:01;;;;;;;4.30;1.33;;;;;;;-1.82;58.97;98859.09;5052356;28;20067;-69
2022/01/16 04:51:28;;;;;;;2.03;1.00;;;;;;;-1.81;58.44;98873.06;5053182;28;20060;-71
2022/01/16 04:53:54;;;;;;;1.80;1.00;;;;;;;-1.85;58.52;98866.28;5051649;28;20053;-71
2022/01/16 04:56:19;;;;;;;2.20;1.05;;;;;;;-1.86;58.23;98872.44;5053412;28;20364;-70
2022/01/16 04:58:45;;;;;;;2.70;1.05;;;;;;;-1.88;58.25;98875.13;5053423;28;20033;-71
2022/01/16 05:01:11;;;;;;;2.00;0.98;;;;;;;-1.85;58.56;98895.13;5053101;28;20919;-70
2022/01/16 05:03:37;;;;;;;1.90;0.95;;;;;;;-1.83;58.74;98885.41;5053043;28;20105;-70
2022/01/16 05:06:03;;;;;;;2.17;0.75;;;;;;;-1.77;58.74;98898.25;5052763;28;20033;-72
2022/01/16 05:08:29;;;;;;;1.98;0.90;;;;;;;-1.77;58.35;98900.88;5053238;28;20511;-72
2022/01/16 05:10:57;;;;;;;1.50;0.80;;;;;;;-1.77;58.55;98907.00;5053134;28;20060;-72
2022/01/16 05:13:30;;;;;;;3.42;1.38;;;;;;;-1.73;58.76;98903.31;5052810;28;20036;-67
2022/01/16 05:18:42;;;;;;;1.63;1.13;;;;;;;-1.78;58.35;98901.81;5052181;28;20036;-69
2022/01/16 05:21:07;;;;;;;2.60;1.05;;;;;;;-1.81;58.12;98920.31;5052911;28;20029;-70
2022/01/16 05:23:34;;;;;;;1.25;0.70;;;;;;;-1.84;58.57;98923.06;5051568;28;20116;-69
2022/01/16 05:26:00;;;;;;;1.48;0.63;;;;;;;-1.88;57.91;98931.09;5052475;28;20035;-69
2022/01/16 05:28:27;;;;;;;1.60;0.73;;;;;;;-1.94;57.72;98928.72;5052699;28;20036;-70
2022/01/16 05:30:52;;;;;;;2.13;0.80;;;;;;;-1.99;57.70;98922.81;5052447;28;20037;-66
2022/01/16 05:33:18;;;;;;;1.00;0.60;;;;;;;-1.92;58.24;98944.41;5052384;28;20506;-70
2022/01/16 05:35:44;;;;;;;1.50;0.77;;;;;;;-2.03;58.18;98932.59;5052527;28;20045;-69
2022/01/16 05:38:10;;;;;;;0.60;0.32;;;;;;;-2.11;58.66;98920.75;5052085;28;20397;-69
2022/01/16 05:40:36;;;;;;;1.52;0.65;;;;;;;-1.88;57.16;98949.44;5052357;28;20438;-73
2022/01/16 05:43:02;;;;;;;0.50;0.30;;;;;;;-1.93;57.45;98954.06;5051006;28;20355;-70
2022/01/16 05:45:28;;;;;;;0.75;0.47;;;;;;;-1.90;57.98;98955.66;5052494;28;20032;-71
2022/01/16 05:47:54;;;;;;;0.85;0.55;;;;;;;-1.85;57.44;98963.34;5051696;28;20032;-66
2022/01/16 05:50:20;;;;;;;1.40;0.70;;;;;;;-1.82;58.22;98971.91;5052382;28;20039;-72
2022/01/16 05:52:46;;;;;;;1.20;0.60;;;;;;;-1.78;57.50;98975.28;5084472;28;20072;-70
2022/01/16 05:55:12;;;;;;;1.33;0.70;;;;;;;-1.84;57.39;98962.44;5051862;28;20394;-71
2022/01/16 05:57:38;;;;;;;1.45;0.90;;;;;;;-2.03;57.16;98937.00;5054895;28;20044;-71
2022/01/16 06:00:06;;;;;;;1.95;0.65;;;;;;;-1.79;57.58;98987.56;5054886;28;20536;-72
2022/01/16 06:02:31;;;;;;;2.22;0.90;;;;;;;-1.82;57.76;98992.91;5053032;28;20029;-71
2022/01/16 06:04:57;;;;;;;1.33;0.70;;;;;;;-1.90;57.60;98968.78;5061963;28;20039;-67
2022/01/16 06:07:22;;;;;;;2.22;0.90;;;;;;;-1.88;57.81;98988.81;5071760;28;20044;-71
2022/01/16 06:09:48;;;;;;;1.58;0.80;;;;;;;-1.93;57.76;98976.78;5051971;28;20402;-71
2022/01/16 06:12:13;;;;;;;3.55;1.25;;;;;;;-1.91;57.97;98973.19;5051993;28;20029;-72
2022/01/16 06:14:39;;;;;;;1.63;0.80;;;;;;;-1.83;57.46;98987.75;5051668;28;20052;-71
2022/01/16 06:17:04;;;;;;;1.75;0.77;;;;;;;-1.82;56.60;98976.34;5084046;28;20024;-70
2022/01/16 06:19:30;;;;;;;2.53;0.50;;;;;;;-1.89;56.62;98981.84;5051377;28;20021;-70
2022/01/16 06:21:56;;;;;;;2.20;0.80;;;;;;;-1.94;57.07;98989.03;5052238;28;20040;-66
2022/01/16 06:24:23;;;;;;;1.13;0.73;;;;;;;-1.99;57.39;98974.44;5067015;28;20037;-71
2022/01/16 06:26:49;;;;;;;2.28;0.70;;;;;;;-1.91;57.69;98977.59;5053947;28;20524;-73
2022/01/16 06:29:16;;;;;;;2.17;0.80;;;;;;;-1.85;57.53;98984.34;5050043;28;20414;-73
2022/01/16 06:31:42;;;;;;;4.78;0.93;;;;;;;-1.85;57.49;98979.09;5050256;28;20489;-71
2022/01/16 06:34:07;;;;;;;2.50;1.15;;;;;;;-1.82;57.40;98971.91;5051624;28;20033;-74
2022/01/16 06:36:35;;;;;;;3.17;1.30;;;;;;;-1.76;57.40;98984.81;5051403;28;20131;-73
2022/01/16 06:39:02;;;;;;;5.80;1.20;;;;;;;-1.72;57.33;98982.88;5051482;28;20304;-72
2022/01/16 06:41:27;;;;;;;1.75;0.80;;;;;;;-1.67;57.47;98991.44;5083515;28;20517;-69
2022/01/16 06:43:52;;;;;;;1.40;0.63;;;;;;;-1.70;56.50;98988.91;5052009;28;20021;-72
2022/01/16 06:46:18;;;;;;;1.65;0.80;;;;;;;-1.65;57.15;98999.22;5051311;28;20029;-73
2022/01/16 06:48:44;;;;;;;2.45;1.00;;;;;;;-1.67;57.01;98991.44;5049843;28;20498;-74
2022/01/16 06:51:09;;;;;;;5.68;1.67;;;;;;;-1.66;57.00;98998.38;5050816;28;20056;-72
2022/01/16 06:53:35;;;;;;;4.93;1.60;;;;;;;-1.82;56.80;98969.31;5051019;28;20052;-74
2022/01/16 06:56:01;;;;;;;4.05;1.50;;;;;;;-1.67;56.67;98996.69;5051450;28;20352;-73
2022/01/16 06:58:26;;;;;;;3.60;1.10;;;;;;;-1.74;56.62;98995.22;5051390;28;20133;-73
2022/01/16 07:00:52;;;;;;;3.05;1.00;;;;;;;-1.71;56.77;98995.06;5050775;28;20425;-72
2022/01/16 07:03:17;;;;;;;5.82;1.40;;;;;;;-1.73;56.54;98986.41;5051406;28;20088;-73
2022/01/16 07:05:44;;;;;;;6.70;2.72;;;;;;;-1.78;56.13;98999.75;5051502;28;20033;-71
2022/01/16 07:08:10;;;;;;;8.20;2.25;;;;;;;-1.80;56.71;99009.47;5050657;28;20029;-72
2022/01/16 07:10:36;;;;;;;9.27;2.42;;;;;;;-2.02;56.51;98968.41;5049564;28;20029;-74
2022/01/16 07:13:02;;;;;;;5.07;1.50;;;;;;;-1.75;55.92;99004.00;5051017;28;20086;-72
2022/01/16 07:15:28;;;;;;;3.83;1.38;;;;;;;-1.73;56.31;99018.78;5051428;28;20036;-73
2022/01/16 07:17:54;;;;;;;4.40;1.40;;;;;;;-1.73;55.84;98995.16;5050671;28;20033;-73
2022/01/16 07:20:19;;;;;;;4.57;1.40;;;;;;;-1.75;56.40;98990.88;5050019;28;20055;-74
2022/01/16 07:22:45;;;;;;;3.03;1.25;;;;;;;-1.52;55.38;99010.03;5050937;28;20453;-73
2022/01/16 07:25:12;;;;;;;2.30;0.88;;;;;;;-1.47;55.18;99010.66;5050607;28;20021;-74
2022/01/16 07:27:38;;;;;;;2.10;0.85;;;;;;;-1.53;55.56;99011.81;5049969;28;20064;-71
2022/01/16 07:30:04;;;;;;;2.47;0.80;;;;;;;-1.54;55.81;99007.50;5049702;28;20114;-71
2022/01/16 07:32:30;;;;;;;3.03;1.25;;;;;;;-1.40;55.48;99014.75;5082209;28;20044;-68
2022/01/16 07:34:56;;;;;;;2.88;1.10;;;;;;;-1.45;55.21;98998.31;5049144;28;20029;-71
2022/01/16 07:37:21;;;;;;;2.85;1.17;;;;;;;-1.25;55.13;99030.72;5050412;28;20029;-71
2022/01/16 07:39:47;;;;;;;1.48;0.80;;;;;;;-1.17;54.54;99031.25;5050386;28;20039;-75
2022/01/16 07:42:13;;;;;;;1.33;0.70;;;;;;;-1.30;54.37;99036.19;5053156;28;20077;-75
2022/01/16 07:44:38;;;;;;;1.92;0.70;;;;;;;-1.37;54.57;99029.50;5054473;28;20082;-76
2022/01/16 07:47:04;;;;;;;1.60;0.60;;;;;;;-1.54;55.01;99007.50;5054382;28;20099;-76
2022/01/16 07:49:30;;;;;;;1.35;0.63;;;;;;;-1.38;54.64;99036.53;5055064;28;20037;-75
2022/01/16 07:51:55;;;;;;;0.85;0.45;;;;;;;-1.30;54.99;99036.19;5053199;28;20040;-75
2022/01/16 07:54:21;;;;;;;0.90;0.60;;;;;;;-1.22;54.93;99035.84;5054294;28;20053;-74
2022/01/16 07:56:47;;;;;;;0.95;0.60;;;;;;;-1.17;54.28;99041.75;5054370;28;20068;-75
2022/01/16 07:59:13;;;;;;;2.90;0.80;;;;;;;-1.24;54.63;99029.81;5054447;28;20081;-75
2022/01/16 08:01:38;;;;;;;1.10;0.60;;;;;;;-1.27;54.36;99049.19;5052392;28;20040;-68
2022/01/16 08:04:04;;;;;;;1.95;0.85;;;;;;;-1.27;55.12;99035.19;5054293;28;20025;-72
2022/01/16 08:06:29;;;;;;;2.45;0.90;;;;;;;-1.38;54.92;99006.78;5054361;28;20482;-72
2022/01/16 08:08:56;;;;;;;1.77;0.80;;;;;;;-1.17;54.42;99032.09;5061592;28;20020;-70
2022/01/16 08:11:22;;;;;;;3.50;1.10;;;;;;;-1.10;54.69;99034.44;5074547;28;20563;-75
2022/01/16 08:13:47;;;;;;;2.50;0.95;;;;;;;-1.04;54.17;99047.31;5075084;28;20474;-72
2022/01/16 08:16:14;;;;;;;1.73;0.90;;;;;;;-0.87;54.21;99055.25;5074174;28;20071;-73
2022/01/16 08:18:40;;;;;;;1.73;0.80;;;;;;;-0.93;54.06;99031.06;5073765;28;20134;-74
2022/01/16 08:21:06;;;;;;;1.13;0.50;;;;;;;-0.67;53.86;99053.47;5074596;28;20469;-72
2022/01/16 08:23:31;;;;;;;1.25;0.65;;;;;;;-0.60;53.85;99052.28;5074137;28;20040;-73
2022/01/16 08:25:57;;;;;;;3.65;1.55;;;;;;;-0.50;53.14;99055.31;5072111;28;20108;-70
2022/01/16 08:28:23;;;;;;;5.72;2.33;;;;;;;-0.47;53.51;99063.09;5074039;28;20060;-73
2022/01/16 08:30:49;;;;;;;4.53;1.60;;;;;;;-0.49;52.84;99051.75;5072725;28;20501;-74
2022/01/16 08:33:14;;;;;;;3.45;1.65;;;;;;;-0.84;52.79;99001.72;5073474;28;20127;-73
2022/01/16 08:35:40;;;;;;;7.63;1.90;;;;;;;-0.70;53.15;99034.41;5073086;28;20060;-73
2022/01/16 08:38:05;;;;;;;3.47;1.75;;;;;;;-0.66;53.19;99042.03;5073777;28;20389;-72
2022/01/16 08:40:31;;;;;;;1.95;1.10;;;;;;;-0.59;52.84;99046.09;5074208;28;20443;-73
2022/01/16 08:42:56;;;;;;;4.32;1.40;;;;;;;-0.57;53.58;99043.38;5066781;28;20044;-68
2022/01/16 08:45:22;;;;;;;4.28;1.50;;;;;;;-0.59;52.97;99047.88;5052592;28;20039;-67
2022/01/16 08:47:47;;;;;;;3.17;1.30;;;;;;;-0.56;53.01;99045.09;5093227;28;20040;-65
2022/01/16 08:50:15;;;;;;;1.67;0.80;;;;;;;-0.56;52.79;99049.50;5106114;28;20093;-71
2022/01/16 08:52:41;;;;;;;2.50;1.10;;;;;;;-0.57;52.39;99059.16;5072893;28;20048;-68
2022/01/16 08:55:08;;;;;;;4.13;1.15;;;;;;;-0.52;52.71;99065.06;5072587;28;20040;-64
2022/01/16 08:57:34;;;;;;;1.80;0.90;;;;;;;-0.53;52.22;99062.50;5073590;28;20166;-66
2022/01/16 08:59:59;;;;;;;3.15;0.98;;;;;;;-0.46;51.92;99064.78;5064417;28;20120;-67
2022/01/16 09:02:25;;;;;;;2.45;1.10;;;;;;;-0.61;52.16;99028.69;5058562;28;20029;-64
2022/01/16 09:04:51;;;;;;;3.35;1.10;;;;;;;-0.33;52.14;99065.06;5053751;28;20029;-68
2022/01/16 09:07:17;;;;;;;4.05;1.52;;;;;;;-0.30;52.15;99043.00;5052704;28;20163;-70
2022/01/16 09:09:43;;;;;;;3.50;1.60;;;;;;;-0.16;51.80;99053.72;5053194;28;20025;-67
2022/01/16 09:12:09;;;;;;;5.35;2.22;;;;;;;-0.07;51.13;99057.66;5051439;28;20029;-66
2022/01/16 09:14:34;;;;;;;5.22;2.05;;;;;;;-0.10;51.66;99055.19;5052845;28;20032;-70
2022/01/16 09:17:00;;;;;;;8.38;3.03;;;;;;;0.01;52.24;99056.44;5052871;28;20021;-73
2022/01/16 09:19:27;;;;;;;7.32;3.03;;;;;;;0.19;51.86;99060.78;5050658;28;20036;-67
2022/01/16 09:21:52;;;;;;;4.90;1.80;;;;;;;0.38;51.30;99058.06;5050529;28;20112;-66
2022/01/16 09:24:18;;;;;;;4.22;1.50;;;;;;;0.55;50.62;99056.34;5049652;28;20447;-67
2022/01/16 09:26:43;;;;;;;4.50;1.77;;;;;;;0.61;50.16;99050.75;5052477;28;20110;-67
2022/01/16 09:29:09;;;;;;;3.67;1.50;;;;;;;0.68;49.92;99057.41;5052342;28;20032;-67
2022/01/16 09:31:35;;;;;;;6.18;1.75;;;;;;;0.53;49.69;99024.81;5052679;28;20041;-68
2022/01/16 09:34:00;;;;;;;5.47;1.70;;;;;;;0.63;49.59;99041.00;5051123;28;20052;-68
2022/01/16 09:36:27;;;;;;;2.63;1.20;;;;;;;0.45;50.00;99005.06;5052425;28;20144;-65
2022/01/16 09:38:52;;;;;;;5.50;2.10;;;;;;;0.77;49.38;99047.34;5052427;28;20132;-68
2022/01/16 09:41:19;;;;;;;3.97;1.80;;;;;;;0.81;49.70;99040.97;5052277;28;20021;-69
2022/01/16 09:43:45;;;;;;;3.70;1.10;;;;;;;0.94;49.19;99041.16;5051314;28;20481;-70
2022/01/16 09:46:11;;;;;;;2.75;1.23;;;;;;;0.90;49.62;99024.66;5055269;28;20020;-69
2022/01/16 09:48:37;;;;;;;3.00;1.50;;;;;;;0.82;49.15;99026.84;5060630;28;20032;-67
2022/01/16 09:51:03;;;;;;;13.30;3.38;;;;;;;0.63;49.18;99032.25;5072434;28;20359;-68
2022/01/16 09:53:28;;;;;;;6.47;2.40;;;;;;;0.41;49.61;99017.56;5054918;28;20091;-67
2022/01/16 09:55:54;;;;;;;3.22;1.50;;;;;;;0.45;50.02;99018.22;5051574;28;20068;-66
2022/01/16 09:58:20;;;;;;;2.78;1.55;;;;;;;0.46;49.98;99019.94;5052061;28;20421;-67
2022/01/16 10:00:46;;;;;;;1.58;1.30;;;;;;;0.52;50.26;99031.00;5052024;28;20055;-68
2022/01/16 10:03:38;;;;;;;3.63;1.50;;;;;;;0.76;49.71;99037.72;5051397;28;20498;-69
2022/01/16 10:06:21;;;;;;;2.15;1.20;;;;;;;0.87;50.07;99040.63;5071733;28;20043;-66
2022/01/16 10:08:49;;;;;;;3.47;1.45;;;;;;;0.82;49.25;99011.88;5070554;28;20098;-68
2022/01/16 10:11:25;;;;;;;1.73;1.20;;;;;;;1.15;49.53;99041.78;5071594;28;20036;-68
2022/01/16 10:16:36;;;;;;;2.08;1.58;;;;;;;1.18;49.03;99023.16;5072084;28;20028;-67
2022/01/16 10:19:02;;;;;;;3.33;1.50;;;;;;;1.09;49.69;99029.81;5070589;28;20024;-67
2022/01/16 10:21:39;;;;;;;1.65;1.20;;;;;;;1.10;50.41;99028.00;5070577;28;20036;-67
2022/01/16 10:24:18;;;;;;;2.38;1.58;;;;;;;1.02;51.06;99031.03;5071971;28;20027;-67
2022/01/16 10:26:44;;;;;;;1.92;1.42;;;;;;;0.90;51.19;99024.66;5071883;28;20471;-66
2022/01/16 10:29:21;;;;;;;2.05;1.40;;;;;;;0.93;51.44;99013.94;5069845;28;20036;-67
2022/01/16 10:31:49;;;;;;;2.90;1.50;;;;;;;0.87;51.83;99011.63;5070807;28;20036;-68
2022/01/16 10:34:31;;;;;;;1.80;1.20;;;;;;;0.90;52.49;99011.47;5071774;28;20109;-68
2022/01/16 10:36:58;;;;;;;1.58;1.10;;;;;;;0.89;51.81;99008.94;5071778;28;20024;-69
2022/01/16 10:39:23;;;;;;;2.20;1.30;;;;;;;0.88;51.69;98994.06;5071273;28;20033;-69
2022/01/16 10:42:15;;;;;;;2.47;1.30;;;;;;;1.07;52.72;99009.72;5066954;28;20021;-67
2022/01/16 10:44:41;;;;;;;1.73;1.27;;;;;;;1.04;51.89;98991.44;5051532;28;20497;-67
2022/01/16 10:47:54;;;;;;;2.70;1.45;;;;;;;1.23;52.16;98986.84;5051468;28;20040;-68
2022/01/16 10:50:31;;;;;;;2.50;1.20;;;;;;;1.32;52.38;98998.66;5048461;28;20025;-68
2022/01/16 10:53:07;;;;;;;1.20;0.90;;;;;;;1.42;51.44;98985.78;5051122;28;20045;-66
2022/01/16 10:55:49;;;;;;;2.20;1.30;;;;;;;1.60;51.21;98985.69;5051048;28;20500;-67
2022/01/16 10:58:15;;;;;;;2.40;1.23;;;;;;;1.60;50.83;98985.69;5050829;28;20477;-68
2022/01/16 11:00:52;;;;;;;2.97;1.70;;;;;;;1.51;51.54;98993.22;5050600;28;20124;-66
2022/01/16 11:03:18;;;;;;;2.90;1.50;;;;;;;1.43;52.47;98995.41;5051054;28;20043;-68
2022/01/16 11:05:45;;;;;;;1.55;1.10;;;;;;;1.40;51.35;98996.44;5051092;28;20522;-67
2022/01/16 11:08:16;;;;;;;2.55;1.10;;;;;;;1.38;51.58;99002.75;5053019;28;20040;-67
2022/01/16 11:10:52;;;;;;;2.67;1.30;;;;;;;1.29;51.96;98999.69;5057768;28;20079;-66
2022/01/16 11:13:19;;;;;;;4.97;1.38;;;;;;;1.22;52.48;99000.09;5050782;28;20043;-66
2022/01/16 11:15:58;;;;;;;1.88;1.40;;;;;;;0.99;52.59;98967.94;5049608;28;20029;-68
2022/01/16 11:18:25;;;;;;;2.08;1.40;;;;;;;1.10;52.87;99001.63;5050206;28;20102;-67
2022/01/16 11:20:57;;;;;;;3.10;1.35;;;;;;;1.06;53.61;99008.00;5050456;28;20029;-67
2022/01/16 11:23:46;;;;;;;2.20;1.42;;;;;;;1.03;53.65;99014.28;5050767;28;20086;-68
2022/01/16 11:26:13;;;;;;;3.25;1.35;;;;;;;0.99;53.25;99018.03;5050151;28;20029;-66
2022/01/16 11:28:39;;;;;;;2.65;1.50;;;;;;;0.92;53.51;99020.16;5050259;28;20056;-67
2022/01/16 11:31:07;;;;;;;2.33;1.60;;;;;;;0.85;53.58;99018.78;5048780;28;20035;-68
2022/01/16 11:33:35;;;;;;;2.13;1.42;;;;;;;0.83;53.91;99025.91;5048914;28;20036;-68
2022/01/16 11:36:05;;;;;;;2.95;1.60;;;;;;;0.84;54.03;99025.84;5049953;28;20091;-69
2022/01/16 11:38:47;;;;;;;2.95;1.38;;;;;;;0.84;54.17;99031.13;5049948;28;20060;-67
2022/01/16 11:41:24;;;;;;;3.47;1.40;;;;;;;0.74;54.14;99016.72;5058684;28;20035;-66
2022/01/16 11:43:52;;;;;;;4.53;1.45;;;;;;;0.63;54.16;99016.44;5069768;28;20084;-67
2022/01/16 11:46:29;;;;;;;4.38;1.60;;;;;;;0.59;54.14;99010.47;5069451;28;20039;-66
2022/01/16 11:49:03;;;;;;;7.75;1.90;;;;;;;0.58;53.99;99014.03;5037715;28;20037;-68
2022/01/16 11:54:10;;;;;;;4.70;1.90;;;;;;;0.49;54.61;99019.81;5049882;28;20053;-67
2022/01/16 11:56:39;;;;;;;3.30;1.60;;;;;;;0.43;54.62;99008.63;5050027;28;20040;-68
2022/01/16 11:59:20;;;;;;;4.63;2.90;;;;;;;0.47;55.04;99011.09;5049949;28;20493;-66
2022/01/16 12:01:57;;;;;;;7.03;2.42;;;;;;;0.50;54.61;99005.72;5050172;28;20037;-68
2022/01/16 12:04:29;;;;;;;3.38;1.98;;;;;;;0.50;54.31;99005.72;5053134;28;20054;-69
2022/01/16 12:07:12;;;;;;;2.78;1.80;;;;;;;0.31;54.60;98990.84;5069890;28;20036;-68
2022/01/16 12:09:41;;;;;;;6.13;1.65;;;;;;;0.40;54.42;98997.44;5070060;28;20040;-68
2022/01/16 12:12:12;;;;;;;3.92;2.10;;;;;;;0.38;54.69;99010.66;5070610;28;20047;-67
2022/01/16 12:15:05;;;;;;;2.45;1.67;;;;;;;0.39;54.83;99012.38;5069761;28;20386;-67
2022/01/16 12:17:44;;;;;;;2.13;1.38;;;;;;;0.39;55.03;99009.72;5068251;28;20029;-68
2022/01/16 12:20:13;;;;;;;3.58;1.70;;;;;;;0.42;54.35;99004.31;5068359;28;20036;-68
2022/01/16 12:22:55;;;;;;;3.83;2.00;;;;;;;0.32;55.10;99005.72;5069919;28;20044;-67
2022/01/16 12:25:45;;;;;;;4.18;1.85;;;;;;;0.26;54.42;99008.69;5068886;28;20036;-68